sensor_id;sensor_type;location;lat;lon;timestamp;temperature;humidity
4673;DHT22;61885;53.560;9.940;2022-11-10T00:01:57;11.20;99.90
4673;DHT22;61885;53.560;9.940;2022-11-10T00:04:27;11.10;99.90
4673;DHT22;61885;53.560;9.940;2022-11-10T00:06:57;11.10;99.90
4673;DHT22;61885;53.560;9.940;2022-11-10T00:09:31;11.10;99.90
4673;DHT22;61885;53.560;9.940;2022-11-10T00:12:00;11.10;99.90
4673;DHT22;61885;53.560;9.940;2022-11-10T00:14:30;11.10;99.90
4673;DHT22;61885;53.560;9.940;2022-11-10T00:17:12;11.10;99.90
4673;DHT22;61885;53.560;9.940;2022-11-10T00:19:42;11.00;99.90
4673;DHT22;61885;53.560;9.940;2022-11-10T00:22:11;11.00;99.90
4673;DHT22;61885;53.560;9.940;2022-11-10T00:24:44;11.00;99.90
4673;DHT22;61885;53.560;9.940;2022-11-10T00:27:13;11.00;99.90
4673;DHT22;61885;53.560;9.940;2022-11-10T00:29:43;10.90;99.90
4673;DHT22;61885;53.560;9.940;2022-11-10T00:32:13;10.80;99.90
4673;DHT22;61885;53.560;9.940;2022-11-10T00:34:43;10.80;99.90
4673;DHT22;61885;53.560;9.940;2022-11-10T00:37:13;10.90;99.90
4673;DHT22;61885;53.560;9.940;2022-11-10T00:39:50;10.80;99.90
4673;DHT22;61885;53.560;9.940;2022-11-10T00:42:19;10.80;99.90
4673;DHT22;61885;53.560;9.940;2022-11-10T00:44:49;10.60;99.90
4673;DHT22;61885;53.560;9.940;2022-11-10T00:47:19;10.90;99.90
4673;DHT22;61885;53.560;9.940;2022-11-10T00:49:56;10.90;99.90
4673;DHT22;61885;53.560;9.940;2022-11-10T00:52:26;10.90;99.90
4673;DHT22;61885;53.560;9.940;2022-11-10T00:54:58;10.90;99.90
4673;DHT22;61885;53.560;9.940;2022-11-10T00:57:29;10.90;99.90
4673;DHT22;61885;53.560;9.940;2022-11-10T01:00:00;10.90;99.90
4673;DHT22;61885;53.560;9.940;2022-11-10T01:02:31;10.90;99.90
4673;DHT22;61885;53.560;9.940;2022-11-10T01:05:01;10.80;99.90
4673;DHT22;61885;53.560;9.940;2022-11-10T01:07:31;10.70;99.90
4673;DHT22;61885;53.560;9.940;2022-11-10T01:10:05;10.60;99.90
4673;DHT22;61885;53.560;9.940;2022-11-10T01:12:36;10.60;99.90
4673;DHT22;61885;53.560;9.940;2022-11-10T01:15:07;10.60;99.90
4673;DHT22;61885;53.560;9.940;2022-11-10T01:17:38;10.50;99.90
4673;DHT22;61885;53.560;9.940;2022-11-10T01:20:09;10.50;99.90
4673;DHT22;61885;53.560;9.940;2022-11-10T01:22:40;10.50;99.90
4673;DHT22;61885;53.560;9.940;2022-11-10T01:25:13;10.50;99.90
4673;DHT22;61885;53.560;9.940;2022-11-10T01:27:44;10.40;99.90
4673;DHT22;61885;53.560;9.940;2022-11-10T01:30:15;10.30;99.90
4673;DHT22;61885;53.560;9.940;2022-11-10T01:32:46;10.30;99.90
4673;DHT22;61885;53.560;9.940;2022-11-10T01:35:16;10.30;99.90
4673;DHT22;61885;53.560;9.940;2022-11-10T01:37:45;10.20;99.90
4673;DHT22;61885;53.560;9.940;2022-11-10T01:40:18;10.30;99.90
4673;DHT22;61885;53.560;9.940;2022-11-10T01:42:50;10.30;99.90
4673;DHT22;61885;53.560;9.940;2022-11-10T01:45:41;10.30;99.90
4673;DHT22;61885;53.560;9.940;2022-11-10T01:48:16;10.20;99.90
4673;DHT22;61885;53.560;9.940;2022-11-10T01:50:47;10.20;99.90
4673;DHT22;61885;53.560;9.940;2022-11-10T01:53:22;10.20;99.90
4673;DHT22;61885;53.560;9.940;2022-11-10T01:55:55;10.20;99.90
4673;DHT22;61885;53.560;9.940;2022-11-10T01:58:29;10.10;99.90
4673;DHT22;61885;53.560;9.940;2022-11-10T02:01:05;10.00;99.90
4673;DHT22;61885;53.560;9.940;2022-11-10T02:03:40;10.00;99.90
4673;DHT22;61885;53.560;9.940;2022-11-10T02:06:13;10.00;99.90
4673;DHT22;61885;53.560;9.940;2022-11-10T02:08:44;10.00;99.90
4673;DHT22;61885;53.560;9.940;2022-11-10T02:11:17;10.00;99.90
4673;DHT22;61885;53.560;9.940;2022-11-10T02:13:48;10.00;99.90
4673;DHT22;61885;53.560;9.940;2022-11-10T02:16:18;10.00;99.90
4673;DHT22;61885;53.560;9.940;2022-11-10T02:18:49;9.90;99.90
4673;DHT22;61885;53.560;9.940;2022-11-10T02:21:21;9.90;99.90
4673;DHT22;61885;53.560;9.940;2022-11-10T02:23:52;10.00;99.90
4673;DHT22;61885;53.560;9.940;2022-11-10T02:26:26;10.00;99.90
4673;DHT22;61885;53.560;9.940;2022-11-10T02:28:56;10.00;99.90
4673;DHT22;61885;53.560;9.940;2022-11-10T02:31:26;10.00;99.90
4673;DHT22;61885;53.560;9.940;2022-11-10T02:33:56;9.90;99.90
4673;DHT22;61885;53.560;9.940;2022-11-10T02:36:28;9.90;99.90
4673;DHT22;61885;53.560;9.940;2022-11-10T02:38:58;9.90;99.90
4673;DHT22;61885;53.560;9.940;2022-11-10T02:41:28;9.80;99.90
4673;DHT22;61885;53.560;9.940;2022-11-10T02:43:58;9.80;99.90
4673;DHT22;61885;53.560;9.940;2022-11-10T02:46:29;9.90;99.90
4673;DHT22;61885;53.560;9.940;2022-11-10T02:49:01;9.90;99.90
4673;DHT22;61885;53.560;9.940;2022-11-10T02:51:33;9.80;99.90
4673;DHT22;61885;53.560;9.940;2022-11-10T02:54:03;9.80;99.90
4673;DHT22;61885;53.560;9.940;2022-11-10T02:56:34;9.80;99.90
4673;DHT22;61885;53.560;9.940;2022-11-10T02:59:04;9.80;99.90
4673;DHT22;61885;53.560;9.940;2022-11-10T03:01:34;9.80;99.90
4673;DHT22;61885;53.560;9.940;2022-11-10T03:04:04;9.80;99.90
4673;DHT22;61885;53.560;9.940;2022-11-10T03:06:37;9.70;99.90
4673;DHT22;61885;53.560;9.940;2022-11-10T03:09:07;9.70;99.90
4673;DHT22;61885;53.560;9.940;2022-11-10T03:11:37;9.70;99.90
4673;DHT22;61885;53.560;9.940;2022-11-10T03:14:10;9.70;99.90
4673;DHT22;61885;53.560;9.940;2022-11-10T03:16:40;9.70;99.90
4673;DHT22;61885;53.560;9.940;2022-11-10T03:19:11;9.70;99.90
4673;DHT22;61885;53.560;9.940;2022-11-10T03:21:43;9.70;99.90
4673;DHT22;61885;53.560;9.940;2022-11-10T03:24:13;9.70;99.90
4673;DHT22;61885;53.560;9.940;2022-11-10T03:26:44;9.70;99.90
4673;DHT22;61885;53.560;9.940;2022-11-10T03:29:14;9.70;99.90
4673;DHT22;61885;53.560;9.940;2022-11-10T03:31:43;9.60;99.90
4673;DHT22;61885;53.560;9.940;2022-11-10T03:34:13;9.60;99.90
4673;DHT22;61885;53.560;9.940;2022-11-10T03:36:47;9.70;99.90
4673;DHT22;61885;53.560;9.940;2022-11-10T03:39:16;9.70;99.90
4673;DHT22;61885;53.560;9.940;2022-11-10T03:41:46;9.60;99.90
4673;DHT22;61885;53.560;9.940;2022-11-10T03:44:19;9.60;99.90
4673;DHT22;61885;53.560;9.940;2022-11-10T03:46:48;9.70;99.90
4673;DHT22;61885;53.560;9.940;2022-11-10T03:49:19;9.70;99.90
4673;DHT22;61885;53.560;9.940;2022-11-10T03:51:52;9.70;99.90
4673;DHT22;61885;53.560;9.940;2022-11-10T03:54:24;9.60;99.90
4673;DHT22;61885;53.560;9.940;2022-11-10T03:56:53;9.60;99.90
4673;DHT22;61885;53.560;9.940;2022-11-10T03:59:23;9.70;99.90
4673;DHT22;61885;53.560;9.940;2022-11-10T04:01:54;9.60;99.90
4673;DHT22;61885;53.560;9.940;2022-11-10T04:04:23;9.70;99.90
4673;DHT22;61885;53.560;9.940;2022-11-10T04:07:11;9.80;99.90
4673;DHT22;61885;53.560;9.940;2022-11-10T04:09:54;9.80;99.90
4673;DHT22;61885;53.560;9.940;2022-11-10T04:12:23;9.80;99.90
4673;DHT22;61885;53.560;9.940;2022-11-10T04:15:07;9.80;99.90
4673;DHT22;61885;53.560;9.940;2022-11-10T04:17:51;9.90;99.90
4673;DHT22;61885;53.560;9.940;2022-11-10T04:20:41;9.90;99.90
4673;DHT22;61885;53.560;9.940;2022-11-10T04:23:14;9.90;99.90
4673;DHT22;61885;53.560;9.940;2022-11-10T04:25:59;9.90;99.90
4673;DHT22;61885;53.560;9.940;2022-11-10T04:28:42;9.90;99.90
4673;DHT22;61885;53.560;9.940;2022-11-10T04:31:14;10.00;99.90
4673;DHT22;61885;53.560;9.940;2022-11-10T04:33:44;10.00;99.90
4673;DHT22;61885;53.560;9.940;2022-11-10T04:36:16;10.00;99.90
4673;DHT22;61885;53.560;9.940;2022-11-10T04:38:50;10.00;99.90
4673;DHT22;61885;53.560;9.940;2022-11-10T04:41:21;10.00;99.90
4673;DHT22;61885;53.560;9.940;2022-11-10T04:43:52;10.00;99.90
4673;DHT22;61885;53.560;9.940;2022-11-10T04:46:23;10.00;99.90
4673;DHT22;61885;53.560;9.940;2022-11-10T04:48:54;11.00;99.90
4673;DHT22;61885;53.560;9.940;2022-11-10T04:51:27;10.10;99.90
4673;DHT22;61885;53.560;9.940;2022-11-10T04:54:00;10.10;99.90
4673;DHT22;61885;53.560;9.940;2022-11-10T04:56:30;10.10;99.90
4673;DHT22;61885;53.560;9.940;2022-11-10T04:59:00;10.10;99.90
4673;DHT22;61885;53.560;9.940;2022-11-10T05:01:30;10.10;99.90
4673;DHT22;61885;53.560;9.940;2022-11-10T05:04:00;10.10;99.90
4673;DHT22;61885;53.560;9.940;2022-11-10T05:06:31;10.10;99.90
4673;DHT22;61885;53.560;9.940;2022-11-10T05:09:03;10.10;99.90
4673;DHT22;61885;53.560;9.940;2022-11-10T05:11:34;10.00;99.90
4673;DHT22;61885;53.560;9.940;2022-11-10T05:14:05;10.10;99.90
4673;DHT22;61885;53.560;9.940;2022-11-10T05:16:34;10.10;99.90
4673;DHT22;61885;53.560;9.940;2022-11-10T05:19:04;10.10;99.90
4673;DHT22;61885;53.560;9.940;2022-11-10T05:21:34;10.10;99.90
4673;DHT22;61885;53.560;9.940;2022-11-10T05:24:06;10.10;99.90
4673;DHT22;61885;53.560;9.940;2022-11-10T05:26:36;10.10;99.90
4673;DHT22;61885;53.560;9.940;2022-11-10T05:29:06;10.00;99.90
4673;DHT22;61885;53.560;9.940;2022-11-10T05:31:39;9.90;99.90
4673;DHT22;61885;53.560;9.940;2022-11-10T05:34:08;9.90;99.90
4673;DHT22;61885;53.560;9.940;2022-11-10T05:36:39;9.90;99.90
4673;DHT22;61885;53.560;9.940;2022-11-10T05:39:13;9.90;99.90
4673;DHT22;61885;53.560;9.940;2022-11-10T05:41:44;9.90;99.90
4673;DHT22;61885;53.560;9.940;2022-11-10T05:44:13;9.90;99.90
4673;DHT22;61885;53.560;9.940;2022-11-10T05:46:43;9.90;99.90
4673;DHT22;61885;53.560;9.940;2022-11-10T05:49:13;9.90;99.90
4673;DHT22;61885;53.560;9.940;2022-11-10T05:51:44;9.90;99.90
4673;DHT22;61885;53.560;9.940;2022-11-10T05:54:18;9.80;99.90
4673;DHT22;61885;53.560;9.940;2022-11-10T05:56:48;9.90;99.90
4673;DHT22;61885;53.560;9.940;2022-11-10T05:59:19;9.90;99.90
4673;DHT22;61885;53.560;9.940;2022-11-10T06:01:48;9.80;99.90
4673;DHT22;61885;53.560;9.940;2022-11-10T06:04:18;9.80;99.90
4673;DHT22;61885;53.560;9.940;2022-11-10T06:06:48;9.80;99.90
4673;DHT22;61885;53.560;9.940;2022-11-10T06:09:23;9.80;99.90
4673;DHT22;61885;53.560;9.940;2022-11-10T06:11:55;9.80;99.90
4673;DHT22;61885;53.560;9.940;2022-11-10T06:14:25;9.80;99.90
4673;DHT22;61885;53.560;9.940;2022-11-10T06:16:54;9.80;99.90
4673;DHT22;61885;53.560;9.940;2022-11-10T06:19:25;9.80;99.90
4673;DHT22;61885;53.560;9.940;2022-11-10T06:21:57;9.70;99.90
4673;DHT22;61885;53.560;9.940;2022-11-10T06:24:30;9.60;99.90
4673;DHT22;61885;53.560;9.940;2022-11-10T06:27:00;9.70;99.90
4673;DHT22;61885;53.560;9.940;2022-11-10T06:29:31;9.70;99.90
4673;DHT22;61885;53.560;9.940;2022-11-10T06:32:05;9.70;99.90
4673;DHT22;61885;53.560;9.940;2022-11-10T06:34:48;9.70;99.90
4673;DHT22;61885;53.560;9.940;2022-11-10T06:37:18;9.60;99.90
4673;DHT22;61885;53.560;9.940;2022-11-10T06:39:50;9.70;99.90
4673;DHT22;61885;53.560;9.940;2022-11-10T06:42:23;9.60;99.90
4673;DHT22;61885;53.560;9.940;2022-11-10T06:44:52;9.70;99.90
4673;DHT22;61885;53.560;9.940;2022-11-10T06:47:22;9.60;99.90
4673;DHT22;61885;53.560;9.940;2022-11-10T06:49:53;9.60;99.90
4673;DHT22;61885;53.560;9.940;2022-11-10T06:52:23;9.60;99.90
4673;DHT22;61885;53.560;9.940;2022-11-10T06:54:56;9.50;99.90
4673;DHT22;61885;53.560;9.940;2022-11-10T06:57:26;9.50;99.90
4673;DHT22;61885;53.560;9.940;2022-11-10T06:59:56;9.50;99.90
4673;DHT22;61885;53.560;9.940;2022-11-10T07:02:27;9.50;99.90
4673;DHT22;61885;53.560;9.940;2022-11-10T07:04:58;9.50;99.90
4673;DHT22;61885;53.560;9.940;2022-11-10T07:07:28;9.50;99.90
4673;DHT22;61885;53.560;9.940;2022-11-10T07:10:00;9.50;99.90
4673;DHT22;61885;53.560;9.940;2022-11-10T07:12:30;9.60;99.90
4673;DHT22;61885;53.560;9.940;2022-11-10T07:15:00;9.60;99.90
4673;DHT22;61885;53.560;9.940;2022-11-10T07:17:31;9.60;99.90
4673;DHT22;61885;53.560;9.940;2022-11-10T07:20:00;9.60;99.90
4673;DHT22;61885;53.560;9.940;2022-11-10T07:22:30;9.60;99.90
4673;DHT22;61885;53.560;9.940;2022-11-10T07:25:02;9.60;99.90
4673;DHT22;61885;53.560;9.940;2022-11-10T07:27:32;9.60;99.90
4673;DHT22;61885;53.560;9.940;2022-11-10T07:30:02;9.70;99.90
4673;DHT22;61885;53.560;9.940;2022-11-10T07:32:33;9.80;99.90
4673;DHT22;61885;53.560;9.940;2022-11-10T07:42:53;10.20;99.90
4673;DHT22;61885;53.560;9.940;2022-11-10T07:45:23;11.80;99.90
4673;DHT22;61885;53.560;9.940;2022-11-10T07:47:57;9.80;99.90
4673;DHT22;61885;53.560;9.940;2022-11-10T07:50:29;10.10;99.90
4673;DHT22;61885;53.560;9.940;2022-11-10T07:53:03;10.10;99.90
4673;DHT22;61885;53.560;9.940;2022-11-10T07:55:35;10.00;99.90
4673;DHT22;61885;53.560;9.940;2022-11-10T07:58:09;10.00;99.90
4673;DHT22;61885;53.560;9.940;2022-11-10T08:00:40;9.90;99.90
4673;DHT22;61885;53.560;9.940;2022-11-10T08:03:13;10.10;99.90
4673;DHT22;61885;53.560;9.940;2022-11-10T08:05:44;10.10;99.90
4673;DHT22;61885;53.560;9.940;2022-11-10T08:08:15;10.10;99.90
4673;DHT22;61885;53.560;9.940;2022-11-10T08:10:44;10.30;99.90
4673;DHT22;61885;53.560;9.940;2022-11-10T08:13:17;10.20;99.90
4673;DHT22;61885;53.560;9.940;2022-11-10T08:15:47;10.30;99.90
4673;DHT22;61885;53.560;9.940;2022-11-10T08:18:19;10.30;99.90
4673;DHT22;61885;53.560;9.940;2022-11-10T08:20:49;10.40;99.90
4673;DHT22;61885;53.560;9.940;2022-11-10T08:23:19;10.40;99.90
4673;DHT22;61885;53.560;9.940;2022-11-10T08:25:50;10.40;99.90
4673;DHT22;61885;53.560;9.940;2022-11-10T08:28:26;10.50;99.90
4673;DHT22;61885;53.560;9.940;2022-11-10T08:30:56;10.50;99.90
4673;DHT22;61885;53.560;9.940;2022-11-10T08:33:26;10.50;99.90
4673;DHT22;61885;53.560;9.940;2022-11-10T08:35:56;10.60;99.90
4673;DHT22;61885;53.560;9.940;2022-11-10T08:38:26;10.70;99.90
4673;DHT22;61885;53.560;9.940;2022-11-10T08:40:56;10.90;99.90
4673;DHT22;61885;53.560;9.940;2022-11-10T08:43:29;10.70;99.90
4673;DHT22;61885;53.560;9.940;2022-11-10T08:46:00;10.80;99.90
4673;DHT22;61885;53.560;9.940;2022-11-10T08:48:31;10.80;99.90
4673;DHT22;61885;53.560;9.940;2022-11-10T08:51:06;10.90;99.90
4673;DHT22;61885;53.560;9.940;2022-11-10T08:53:36;10.80;99.90
4673;DHT22;61885;53.560;9.940;2022-11-10T08:56:10;10.90;99.90
4673;DHT22;61885;53.560;9.940;2022-11-10T08:58:49;10.90;99.90
4673;DHT22;61885;53.560;9.940;2022-11-10T09:03:51;11.00;99.90
4673;DHT22;61885;53.560;9.940;2022-11-10T09:06:23;11.10;99.90
4673;DHT22;61885;53.560;9.940;2022-11-10T09:08:53;11.00;99.90
4673;DHT22;61885;53.560;9.940;2022-11-10T09:11:23;11.00;99.90
4673;DHT22;61885;53.560;9.940;2022-11-10T09:13:55;11.00;99.90
4673;DHT22;61885;53.560;9.940;2022-11-10T09:18:56;11.10;99.90
4673;DHT22;61885;53.560;9.940;2022-11-10T09:21:25;11.20;99.90
4673;DHT22;61885;53.560;9.940;2022-11-10T09:26:25;11.30;99.90
4673;DHT22;61885;53.560;9.940;2022-11-10T09:28:59;11.40;99.90
4673;DHT22;61885;53.560;9.940;2022-11-10T09:31:29;11.50;99.90
4673;DHT22;61885;53.560;9.940;2022-11-10T09:36:32;11.50;99.90
4673;DHT22;61885;53.560;9.940;2022-11-10T09:39:05;11.50;99.90
4673;DHT22;61885;53.560;9.940;2022-11-10T09:41:39;12.30;99.90
4673;DHT22;61885;53.560;9.940;2022-11-10T09:44:17;11.60;99.90
4673;DHT22;61885;53.560;9.940;2022-11-10T09:46:52;11.60;99.90
4673;DHT22;61885;53.560;9.940;2022-11-10T09:49:32;11.70;99.90
4673;DHT22;61885;53.560;9.940;2022-11-10T09:52:07;11.80;99.90
4673;DHT22;61885;53.560;9.940;2022-11-10T09:54:43;11.80;99.90
4673;DHT22;61885;53.560;9.940;2022-11-10T09:57:17;11.90;99.90
4673;DHT22;61885;53.560;9.940;2022-11-10T09:59:54;11.80;99.90
4673;DHT22;61885;53.560;9.940;2022-11-10T10:02:27;11.90;99.90
4673;DHT22;61885;53.560;9.940;2022-11-10T10:05:38;11.90;99.90
4673;DHT22;61885;53.560;9.940;2022-11-10T10:08:25;11.90;99.90
4673;DHT22;61885;53.560;9.940;2022-11-10T10:11:07;10.90;99.90
4673;DHT22;61885;53.560;9.940;2022-11-10T10:14:02;12.10;99.90
4673;DHT22;61885;53.560;9.940;2022-11-10T10:16:46;12.20;99.90
4673;DHT22;61885;53.560;9.940;2022-11-10T10:19:30;12.10;99.90
4673;DHT22;61885;53.560;9.940;2022-11-10T10:22:28;12.10;99.90
4673;DHT22;61885;53.560;9.940;2022-11-10T10:25:06;12.90;99.90
4673;DHT22;61885;53.560;9.940;2022-11-10T10:27:40;12.30;99.90
4673;DHT22;61885;53.560;9.940;2022-11-10T10:30:15;12.30;99.90
4673;DHT22;61885;53.560;9.940;2022-11-10T10:32:48;12.20;99.90
4673;DHT22;61885;53.560;9.940;2022-11-10T10:35:19;12.20;99.90
4673;DHT22;61885;53.560;9.940;2022-11-10T10:37:51;12.10;99.90
4673;DHT22;61885;53.560;9.940;2022-11-10T10:40:23;12.30;99.90
4673;DHT22;61885;53.560;9.940;2022-11-10T10:42:54;12.30;99.90
4673;DHT22;61885;53.560;9.940;2022-11-10T10:45:26;12.40;99.90
4673;DHT22;61885;53.560;9.940;2022-11-10T10:48:00;12.20;99.90
4673;DHT22;61885;53.560;9.940;2022-11-10T10:50:31;12.30;99.90
4673;DHT22;61885;53.560;9.940;2022-11-10T10:53:10;12.40;99.90
4673;DHT22;61885;53.560;9.940;2022-11-10T10:55:46;12.50;99.90
4673;DHT22;61885;53.560;9.940;2022-11-10T10:58:22;12.60;99.90
4673;DHT22;61885;53.560;9.940;2022-11-10T11:00:57;12.50;99.90
4673;DHT22;61885;53.560;9.940;2022-11-10T11:03:39;12.60;99.90
4673;DHT22;61885;53.560;9.940;2022-11-10T11:06:19;12.60;99.90
4673;DHT22;61885;53.560;9.940;2022-11-10T11:09:05;12.60;99.90
4673;DHT22;61885;53.560;9.940;2022-11-10T11:11:39;12.60;99.90
4673;DHT22;61885;53.560;9.940;2022-11-10T11:14:20;12.70;99.90
4673;DHT22;61885;53.560;9.940;2022-11-10T11:16:53;12.60;99.90
4673;DHT22;61885;53.560;9.940;2022-11-10T11:19:28;12.70;99.90
4673;DHT22;61885;53.560;9.940;2022-11-10T11:22:16;12.80;99.90
4673;DHT22;61885;53.560;9.940;2022-11-10T11:24:59;12.80;99.90
4673;DHT22;61885;53.560;9.940;2022-11-10T11:27:35;12.90;99.90
4673;DHT22;61885;53.560;9.940;2022-11-10T11:30:12;13.40;99.90
4673;DHT22;61885;53.560;9.940;2022-11-10T11:33:12;12.70;99.90
4673;DHT22;61885;53.560;9.940;2022-11-10T11:35:51;13.00;99.90
4673;DHT22;61885;53.560;9.940;2022-11-10T11:38:30;12.90;99.90
4673;DHT22;61885;53.560;9.940;2022-11-10T11:41:10;12.90;99.90
4673;DHT22;61885;53.560;9.940;2022-11-10T11:43:57;12.70;99.90
4673;DHT22;61885;53.560;9.940;2022-11-10T11:46:36;12.70;99.90
4673;DHT22;61885;53.560;9.940;2022-11-10T11:49:35;12.70;99.90
4673;DHT22;61885;53.560;9.940;2022-11-10T11:52:35;12.80;99.90
4673;DHT22;61885;53.560;9.940;2022-11-10T11:55:17;12.80;99.90
4673;DHT22;61885;53.560;9.940;2022-11-10T11:58:06;12.80;99.90
4673;DHT22;61885;53.560;9.940;2022-11-10T12:00:56;12.90;99.90
4673;DHT22;61885;53.560;9.940;2022-11-10T12:04:06;15.50;99.90
4673;DHT22;61885;53.560;9.940;2022-11-10T12:06:53;13.00;99.90
4673;DHT22;61885;53.560;9.940;2022-11-10T12:12:57;13.10;99.90
4673;DHT22;61885;53.560;9.940;2022-11-10T12:15:52;14.90;99.90
4673;DHT22;61885;53.560;9.940;2022-11-10T12:18:29;13.10;99.90
4673;DHT22;61885;53.560;9.940;2022-11-10T12:21:17;13.10;99.90
4673;DHT22;61885;53.560;9.940;2022-11-10T12:24:10;14.70;99.90
4673;DHT22;61885;53.560;9.940;2022-11-10T12:26:51;13.10;99.90
4673;DHT22;61885;53.560;9.940;2022-11-10T12:29:32;13.20;99.90
4673;DHT22;61885;53.560;9.940;2022-11-10T12:32:14;13.10;99.90
4673;DHT22;61885;53.560;9.940;2022-11-10T12:35:10;13.20;99.90
4673;DHT22;61885;53.560;9.940;2022-11-10T12:37:44;13.10;99.90
4673;DHT22;61885;53.560;9.940;2022-11-10T12:40:20;13.10;99.90
4673;DHT22;61885;53.560;9.940;2022-11-10T12:42:57;13.00;99.90
4673;DHT22;61885;53.560;9.940;2022-11-10T12:45:41;13.10;99.90
4673;DHT22;61885;53.560;9.940;2022-11-10T12:48:15;13.00;99.90
4673;DHT22;61885;53.560;9.940;2022-11-10T12:50:54;13.00;99.90
4673;DHT22;61885;53.560;9.940;2022-11-10T12:53:58;13.00;99.90
4673;DHT22;61885;53.560;9.940;2022-11-10T12:56:50;13.10;99.90
4673;DHT22;61885;53.560;9.940;2022-11-10T12:59:30;13.00;99.90
4673;DHT22;61885;53.560;9.940;2022-11-10T13:02:21;13.00;99.90
4673;DHT22;61885;53.560;9.940;2022-11-10T13:08:26;14.10;99.90
4673;DHT22;61885;53.560;9.940;2022-11-10T13:11:24;13.00;99.90
4673;DHT22;61885;53.560;9.940;2022-11-10T13:13:56;13.00;99.90
4673;DHT22;61885;53.560;9.940;2022-11-10T13:16:46;13.00;99.90
4673;DHT22;61885;53.560;9.940;2022-11-10T13:19:50;14.90;99.90
4673;DHT22;61885;53.560;9.940;2022-11-10T13:22:30;13.30;99.90
4673;DHT22;61885;53.560;9.940;2022-11-10T13:28:09;13.30;99.90
4673;DHT22;61885;53.560;9.940;2022-11-10T13:30:42;13.10;99.90
4673;DHT22;61885;53.560;9.940;2022-11-10T13:33:33;13.10;99.90
4673;DHT22;61885;53.560;9.940;2022-11-10T13:36:10;13.10;99.90
4673;DHT22;61885;53.560;9.940;2022-11-10T13:39:21;13.00;99.90
4673;DHT22;61885;53.560;9.940;2022-11-10T13:41:57;13.30;99.90
4673;DHT22;61885;53.560;9.940;2022-11-10T13:44:32;13.00;99.90
4673;DHT22;61885;53.560;9.940;2022-11-10T13:47:49;13.10;99.90
4673;DHT22;61885;53.560;9.940;2022-11-10T13:51:11;13.20;99.90
4673;DHT22;61885;53.560;9.940;2022-11-10T13:53:49;13.00;99.90
4673;DHT22;61885;53.560;9.940;2022-11-10T13:56:49;13.10;99.90
4673;DHT22;61885;53.560;9.940;2022-11-10T13:59:58;13.80;99.90
4673;DHT22;61885;53.560;9.940;2022-11-10T14:02:57;13.20;99.90
4673;DHT22;61885;53.560;9.940;2022-11-10T14:09:08;13.20;99.90
4673;DHT22;61885;53.560;9.940;2022-11-10T14:16:55;13.20;99.90
4673;DHT22;61885;53.560;9.940;2022-11-10T14:19:49;13.20;99.90
4673;DHT22;61885;53.560;9.940;2022-11-10T14:22:55;13.20;99.90
4673;DHT22;61885;53.560;9.940;2022-11-10T14:28:34;13.30;99.90
4673;DHT22;61885;53.560;9.940;2022-11-10T14:31:16;16.80;99.90
4673;DHT22;61885;53.560;9.940;2022-11-10T14:34:02;13.30;99.90
4673;DHT22;61885;53.560;9.940;2022-11-10T14:36:33;13.30;99.90
4673;DHT22;61885;53.560;9.940;2022-11-10T14:39:07;13.30;99.90
4673;DHT22;61885;53.560;9.940;2022-11-10T14:41:46;13.30;99.90
4673;DHT22;61885;53.560;9.940;2022-11-10T14:44:24;13.30;99.90
4673;DHT22;61885;53.560;9.940;2022-11-10T14:47:02;13.30;99.90
4673;DHT22;61885;53.560;9.940;2022-11-10T14:49:41;13.70;99.90
4673;DHT22;61885;53.560;9.940;2022-11-10T14:52:12;13.30;99.90
4673;DHT22;61885;53.560;9.940;2022-11-10T14:54:43;13.30;99.90
4673;DHT22;61885;53.560;9.940;2022-11-10T14:57:19;13.40;99.90
4673;DHT22;61885;53.560;9.940;2022-11-10T14:59:52;13.70;99.90
4673;DHT22;61885;53.560;9.940;2022-11-10T15:02:24;13.30;99.90
4673;DHT22;61885;53.560;9.940;2022-11-10T15:04:56;13.30;99.90
4673;DHT22;61885;53.560;9.940;2022-11-10T15:07:28;13.20;99.90
4673;DHT22;61885;53.560;9.940;2022-11-10T15:10:04;13.10;99.90
4673;DHT22;61885;53.560;9.940;2022-11-10T15:12:35;13.10;99.90
4673;DHT22;61885;53.560;9.940;2022-11-10T15:15:31;13.20;99.90
4673;DHT22;61885;53.560;9.940;2022-11-10T15:18:25;12.50;99.90
4673;DHT22;61885;53.560;9.940;2022-11-10T15:21:01;13.20;99.90
4673;DHT22;61885;53.560;9.940;2022-11-10T15:23:38;13.20;99.90
4673;DHT22;61885;53.560;9.940;2022-11-10T15:26:20;13.20;99.90
4673;DHT22;61885;53.560;9.940;2022-11-10T15:28:51;13.20;99.90
4673;DHT22;61885;53.560;9.940;2022-11-10T15:31:29;15.20;99.90
4673;DHT22;61885;53.560;9.940;2022-11-10T15:34:26;13.40;99.90
4673;DHT22;61885;53.560;9.940;2022-11-10T15:37:11;13.80;99.90
4673;DHT22;61885;53.560;9.940;2022-11-10T15:40:30;13.20;99.90
4673;DHT22;61885;53.560;9.940;2022-11-10T15:43:08;13.20;99.90
4673;DHT22;61885;53.560;9.940;2022-11-10T15:45:45;13.20;99.90
4673;DHT22;61885;53.560;9.940;2022-11-10T15:48:21;13.30;99.90
4673;DHT22;61885;53.560;9.940;2022-11-10T15:50:57;13.30;99.90
4673;DHT22;61885;53.560;9.940;2022-11-10T15:53:34;13.30;99.90
4673;DHT22;61885;53.560;9.940;2022-11-10T15:56:12;13.30;99.90
4673;DHT22;61885;53.560;9.940;2022-11-10T15:58:47;13.10;99.90
4673;DHT22;61885;53.560;9.940;2022-11-10T16:01:21;13.20;99.90
4673;DHT22;61885;53.560;9.940;2022-11-10T16:03:55;13.40;99.90
4673;DHT22;61885;53.560;9.940;2022-11-10T16:06:25;13.40;99.90
4673;DHT22;61885;53.560;9.940;2022-11-10T16:08:56;13.30;99.90
4673;DHT22;61885;53.560;9.940;2022-11-10T16:11:29;15.40;99.90
4673;DHT22;61885;53.560;9.940;2022-11-10T16:14:00;13.30;99.90
4673;DHT22;61885;53.560;9.940;2022-11-10T16:16:31;13.30;99.90
4673;DHT22;61885;53.560;9.940;2022-11-10T16:19:04;13.50;99.90
4673;DHT22;61885;53.560;9.940;2022-11-10T16:21:34;13.30;99.90
4673;DHT22;61885;53.560;9.940;2022-11-10T16:24:07;13.50;99.90
4673;DHT22;61885;53.560;9.940;2022-11-10T16:26:46;13.40;99.90
4673;DHT22;61885;53.560;9.940;2022-11-10T16:29:17;13.40;99.90
4673;DHT22;61885;53.560;9.940;2022-11-10T16:31:48;13.40;99.90
4673;DHT22;61885;53.560;9.940;2022-11-10T16:34:23;13.80;99.90
4673;DHT22;61885;53.560;9.940;2022-11-10T16:37:02;13.80;99.90
4673;DHT22;61885;53.560;9.940;2022-11-10T16:39:42;13.30;99.90
4673;DHT22;61885;53.560;9.940;2022-11-10T16:42:27;13.40;99.90
4673;DHT22;61885;53.560;9.940;2022-11-10T16:44:59;13.40;99.90
4673;DHT22;61885;53.560;9.940;2022-11-10T16:47:32;13.40;99.90
4673;DHT22;61885;53.560;9.940;2022-11-10T16:50:26;13.40;99.90
4673;DHT22;61885;53.560;9.940;2022-11-10T16:53:09;13.40;99.90
4673;DHT22;61885;53.560;9.940;2022-11-10T16:55:49;13.40;99.90
4673;DHT22;61885;53.560;9.940;2022-11-10T16:58:30;13.50;99.90
4673;DHT22;61885;53.560;9.940;2022-11-10T17:01:18;14.80;99.90
4673;DHT22;61885;53.560;9.940;2022-11-10T17:04:17;13.40;99.90
4673;DHT22;61885;53.560;9.940;2022-11-10T17:07:02;13.50;99.90
4673;DHT22;61885;53.560;9.940;2022-11-10T17:10:11;13.70;99.90
4673;DHT22;61885;53.560;9.940;2022-11-10T17:12:43;13.50;99.90
4673;DHT22;61885;53.560;9.940;2022-11-10T17:15:16;13.50;99.90
4673;DHT22;61885;53.560;9.940;2022-11-10T17:17:52;13.40;99.90
4673;DHT22;61885;53.560;9.940;2022-11-10T17:20:32;13.70;99.90
4673;DHT22;61885;53.560;9.940;2022-11-10T17:23:06;13.50;99.90
4673;DHT22;61885;53.560;9.940;2022-11-10T17:25:36;13.50;99.90